createdAt,value
2023-03-14T00:01:33.181Z,98544.81
2023-03-14T00:04:00.470Z,98529.13
2023-03-14T00:06:27.449Z,98535.72
2023-03-14T00:08:54.961Z,98542.66
2023-03-14T00:11:21.842Z,98536.06
2023-03-14T00:13:48.942Z,98535.41
2023-03-14T00:16:15.730Z,98526.06
2023-03-14T00:18:42.566Z,98526.13
2023-03-14T00:21:09.552Z,98516.50
2023-03-14T00:23:36.339Z,98524.72
2023-03-14T00:26:03.099Z,98515.13
2023-03-14T00:28:29.827Z,98496.41
2023-03-14T00:30:56.721Z,98492.28
2023-03-14T00:33:23.460Z,98491.13
2023-03-14T00:35:50.219Z,98483.66
2023-03-14T00:38:16.963Z,98480.63
2023-03-14T00:40:43.706Z,98495.19
2023-03-14T00:43:10.458Z,98510.84
2023-03-14T00:45:37.235Z,98509.47
2023-03-14T00:48:04.010Z,98516.28
2023-03-14T00:50:30.751Z,98530.00
2023-03-14T00:52:57.535Z,98537.66
2023-03-14T00:55:24.282Z,98558.91
2023-03-14T00:57:51.042Z,98561.31
2023-03-14T01:00:17.795Z,98572.66
2023-03-14T01:02:44.598Z,98560.09
2023-03-14T01:05:11.426Z,98562.59
2023-03-14T01:07:38.226Z,98560.72
2023-03-14T01:10:04.978Z,98556.03
2023-03-14T01:12:31.751Z,98571.94
2023-03-14T01:14:58.522Z,98570.81
2023-03-14T01:17:25.263Z,98573.53
2023-03-14T01:19:52.065Z,98592.75
2023-03-14T01:22:18.850Z,98578.16
2023-03-14T01:24:45.667Z,98574.59
2023-03-14T01:27:12.434Z,98578.09
2023-03-14T01:29:39.279Z,98577.31
2023-03-14T01:32:06.069Z,98578.34
2023-03-14T01:34:32.803Z,98586.31
2023-03-14T01:36:59.573Z,98586.38
2023-03-14T01:39:26.337Z,98575.88
2023-03-14T01:41:53.102Z,98579.09
2023-03-14T01:44:19.863Z,98571.78
2023-03-14T01:46:46.717Z,98572.19
2023-03-14T01:49:13.480Z,98573.84
2023-03-14T01:51:40.232Z,98572.22
2023-03-14T01:54:06.987Z,98570.03
2023-03-14T01:56:33.759Z,98573.56
2023-03-14T01:59:00.527Z,98548.84
2023-03-14T02:01:27.389Z,98543.31
2023-03-14T02:03:54.473Z,98536.41
2023-03-14T02:06:21.297Z,98527.59
2023-03-14T02:08:50.430Z,98510.00
2023-03-14T02:11:17.309Z,98508.06
2023-03-14T02:13:44.065Z,98496.19
2023-03-14T02:16:10.886Z,98499.50
2023-03-14T02:18:37.642Z,98487.47
2023-03-14T02:21:04.384Z,98487.69
2023-03-14T02:23:31.142Z,98488.94
2023-03-14T02:25:57.887Z,98487.16
2023-03-14T02:28:24.695Z,98482.94
2023-03-14T02:30:51.435Z,98468.69
2023-03-14T02:33:19.921Z,98471.38
2023-03-14T02:35:46.960Z,98472.75
2023-03-14T02:38:13.809Z,98473.03
2023-03-14T02:40:40.593Z,98482.06
2023-03-14T02:43:07.407Z,98475.25
2023-03-14T02:45:34.179Z,98466.56
2023-03-14T02:48:00.933Z,98469.56
2023-03-14T02:50:27.715Z,98481.09
2023-03-14T02:52:54.436Z,98479.19
2023-03-14T02:55:21.184Z,98468.72
2023-03-14T02:57:47.936Z,98470.91
2023-03-14T03:00:15.666Z,98470.28
2023-03-14T03:02:42.410Z,98474.09
2023-03-14T03:05:09.160Z,98456.72
2023-03-14T03:07:35.922Z,98458.34
2023-03-14T03:10:02.647Z,98461.06
2023-03-14T03:12:29.390Z,98476.47
2023-03-14T03:14:56.136Z,98477.25
2023-03-14T03:17:22.851Z,98459.72
2023-03-14T03:19:49.600Z,98449.94
2023-03-14T03:22:16.374Z,98455.75
2023-03-14T03:24:43.127Z,98457.13
2023-03-14T03:27:09.952Z,98459.91
2023-03-14T03:29:36.706Z,98467.50
2023-03-14T03:32:03.515Z,98472.91
2023-03-14T03:34:30.259Z,98466.53
2023-03-14T03:36:57.007Z,98472.06
2023-03-14T03:39:23.748Z,98477.00
2023-03-14T03:41:50.507Z,98474.22
2023-03-14T03:44:17.267Z,98457.78
2023-03-14T03:46:43.996Z,98446.25
2023-03-14T03:49:10.744Z,98442.34
2023-03-14T03:51:37.489Z,98436.00
2023-03-14T03:54:04.231Z,98418.03
2023-03-14T03:56:32.402Z,98430.94
2023-03-14T03:58:59.168Z,98426.19
2023-03-14T04:01:25.980Z,98419.56
2023-03-14T04:03:52.780Z,98439.38
2023-03-14T04:06:19.644Z,98433.25
2023-03-14T04:08:46.469Z,98433.78
2023-03-14T04:11:13.296Z,98441.00
2023-03-14T04:13:40.032Z,98450.59
2023-03-14T04:16:06.825Z,98444.16
2023-03-14T04:18:33.622Z,98433.59
2023-03-14T04:21:00.409Z,98442.50
2023-03-14T04:23:27.272Z,98447.69
2023-03-14T04:25:54.031Z,98437.44
2023-03-14T04:28:20.794Z,98442.47
2023-03-14T04:30:47.554Z,98437.50
2023-03-14T04:33:18.016Z,98430.31
2023-03-14T04:35:44.927Z,98411.59
2023-03-14T04:38:11.679Z,98421.47
2023-03-14T04:40:38.527Z,98409.06
2023-03-14T04:43:05.257Z,98406.56
2023-03-14T04:45:32.000Z,98393.84
2023-03-14T04:47:58.764Z,98402.59
2023-03-14T04:50:25.498Z,98398.16
2023-03-14T04:52:52.249Z,98402.56
2023-03-14T04:55:18.998Z,98397.56
2023-03-14T04:57:45.733Z,98392.03
2023-03-14T05:00:12.477Z,98392.25
2023-03-14T05:02:39.326Z,98376.22
2023-03-14T05:05:06.108Z,98386.06
2023-03-14T05:07:32.849Z,98391.22
2023-03-14T05:09:59.598Z,98395.66
2023-03-14T05:12:26.332Z,98387.63
2023-03-14T05:14:53.061Z,98393.31
2023-03-14T05:17:19.884Z,98384.50
2023-03-14T05:19:46.641Z,98380.34
2023-03-14T05:22:13.371Z,98381.34
2023-03-14T05:24:40.182Z,98378.88
2023-03-14T05:27:06.912Z,98380.44
2023-03-14T05:29:33.670Z,98379.25
2023-03-14T05:32:00.507Z,98373.53
2023-03-14T05:34:27.241Z,98371.84
2023-03-14T05:36:53.995Z,98366.84
2023-03-14T05:39:20.751Z,98362.13
2023-03-14T05:41:47.487Z,98352.22
2023-03-14T05:44:14.219Z,98363.44
2023-03-14T05:46:40.984Z,98367.56
2023-03-14T05:49:07.709Z,98368.53
2023-03-14T05:51:34.440Z,98366.81
2023-03-14T05:54:01.210Z,98371.75
2023-03-14T05:56:27.949Z,98366.38
2023-03-14T05:58:55.772Z,98367.59
2023-03-14T06:01:22.596Z,98374.94
2023-03-14T06:03:49.358Z,98374.59
2023-03-14T06:06:17.547Z,98374.25
2023-03-14T06:08:44.317Z,98373.09
2023-03-14T06:11:11.168Z,98380.25
2023-03-14T06:13:37.922Z,98371.34
2023-03-14T06:16:04.745Z,98378.72
2023-03-14T06:18:31.640Z,98380.09
2023-03-14T06:20:58.455Z,98383.34
2023-03-14T06:23:26.106Z,98377.00
2023-03-14T06:25:52.840Z,98381.63
2023-03-14T06:28:19.619Z,98386.31
2023-03-14T06:30:46.474Z,98391.41
2023-03-14T06:33:13.308Z,98393.13
2023-03-14T06:35:40.125Z,98387.78
2023-03-14T06:38:06.932Z,98385.88
2023-03-14T06:40:33.673Z,98384.13
2023-03-14T06:43:00.475Z,98392.78
2023-03-14T06:45:27.279Z,98400.75
2023-03-14T06:47:54.054Z,98404.56
2023-03-14T06:50:22.993Z,98398.50
2023-03-14T06:52:49.851Z,98398.97
2023-03-14T06:55:16.674Z,98411.22
2023-03-14T06:57:44.929Z,98407.31
2023-03-14T07:00:11.724Z,98416.97
2023-03-14T07:02:43.120Z,98426.19
2023-03-14T07:05:11.222Z,98422.59
2023-03-14T07:07:38.034Z,98422.31
2023-03-14T07:10:04.845Z,98426.69
2023-03-14T07:12:31.616Z,98423.41
2023-03-14T07:15:03.290Z,98428.22
2023-03-14T07:17:38.843Z,98417.34
2023-03-14T07:20:07.439Z,98418.41
2023-03-14T07:22:35.318Z,98414.69
2023-03-14T07:25:02.253Z,98413.78
2023-03-14T07:27:29.090Z,98405.59
2023-03-14T07:29:55.840Z,98412.28
2023-03-14T07:32:22.597Z,98396.06
2023-03-14T07:34:49.617Z,98388.63
2023-03-14T07:37:16.379Z,98396.81
2023-03-14T07:39:43.193Z,98381.94
2023-03-14T07:42:10.075Z,98387.94
2023-03-14T07:44:36.805Z,98380.25
2023-03-14T07:47:03.586Z,98383.00
2023-03-14T07:49:30.378Z,98379.56
2023-03-14T07:51:57.221Z,98391.09
2023-03-14T07:54:24.554Z,98386.91
2023-03-14T07:56:51.353Z,98391.00
2023-03-14T07:59:18.159Z,98391.00
2023-03-14T08:01:44.968Z,98392.81
2023-03-14T08:04:11.877Z,98402.34
2023-03-14T08:06:38.783Z,98403.78
2023-03-14T08:09:05.594Z,98393.41
2023-03-14T08:11:32.377Z,98399.47
2023-03-14T08:13:59.206Z,98394.75
2023-03-14T08:16:26.002Z,98386.50
2023-03-14T08:18:52.819Z,98386.66
2023-03-14T08:21:19.597Z,98380.59
2023-03-14T08:23:46.365Z,98370.91
2023-03-14T08:26:13.196Z,98384.56
2023-03-14T08:28:40.004Z,98377.06
2023-03-14T08:31:06.864Z,98377.88
2023-03-14T08:33:33.776Z,98373.13
2023-03-14T08:36:00.688Z,98374.72
2023-03-14T08:38:27.485Z,98368.44
2023-03-14T08:40:54.257Z,98372.22
2023-03-14T08:43:21.075Z,98369.69
2023-03-14T08:45:47.824Z,98366.44
2023-03-14T08:48:14.708Z,98365.69
2023-03-14T08:50:41.710Z,98365.63
2023-03-14T08:53:08.505Z,98362.38
2023-03-14T08:55:35.396Z,98362.56
2023-03-14T08:58:02.168Z,98358.69
2023-03-14T09:00:28.971Z,98357.19
2023-03-14T09:02:55.815Z,98353.56
2023-03-14T09:05:22.587Z,98356.56
2023-03-14T09:07:49.379Z,98355.41
2023-03-14T09:10:16.179Z,98352.03
2023-03-14T09:12:43.080Z,98349.22
2023-03-14T09:15:09.927Z,98348.94
2023-03-14T09:17:36.688Z,98351.88
2023-03-14T09:20:06.692Z,98363.94
2023-03-14T09:22:34.436Z,98365.19
2023-03-14T09:25:01.309Z,98368.50
2023-03-14T09:27:28.098Z,98361.69
2023-03-14T09:29:54.852Z,98378.28
2023-03-14T09:32:21.732Z,98374.13
2023-03-14T09:34:48.745Z,98379.28
2023-03-14T09:37:17.099Z,98378.63
2023-03-14T09:39:43.938Z,98386.56
2023-03-14T09:42:10.692Z,98386.22
2023-03-14T09:44:37.465Z,98397.13
2023-03-14T09:47:04.480Z,98396.03
2023-03-14T09:49:31.554Z,98392.34
2023-03-14T09:51:58.335Z,98402.97
2023-03-14T09:54:25.111Z,98391.81
2023-03-14T09:56:51.851Z,98399.41
2023-03-14T09:59:18.612Z,98393.63
2023-03-14T10:01:45.406Z,98398.28
2023-03-14T10:04:14.280Z,98397.78
2023-03-14T10:06:41.109Z,98394.59
2023-03-14T10:09:07.900Z,98394.44
2023-03-14T10:11:34.682Z,98391.91
2023-03-14T10:14:01.429Z,98378.38
2023-03-14T10:16:28.206Z,98383.59
2023-03-14T10:18:54.968Z,98373.31
2023-03-14T10:21:21.739Z,98377.88
2023-03-14T10:23:49.843Z,98375.13
2023-03-14T10:26:16.937Z,98381.09
2023-03-14T10:28:43.695Z,98377.75
2023-03-14T10:31:10.521Z,98380.78
2023-03-14T10:33:37.298Z,98392.19
2023-03-14T10:36:04.106Z,98378.44
2023-03-14T10:38:30.962Z,98381.38
2023-03-14T10:40:58.506Z,98384.84
2023-03-14T10:43:27.690Z,98380.16
2023-03-14T10:45:58.567Z,98385.56
2023-03-14T10:48:25.340Z,98379.97
2023-03-14T10:50:52.072Z,98390.66
2023-03-14T10:53:19.561Z,98384.00
2023-03-14T10:55:46.392Z,98385.00
2023-03-14T10:58:13.131Z,98388.31
2023-03-14T11:00:39.888Z,98394.53
2023-03-14T11:03:06.943Z,98391.47
2023-03-14T11:05:33.895Z,98394.22
2023-03-14T11:08:00.719Z,98396.44
2023-03-14T11:10:27.502Z,98395.28
2023-03-14T11:12:54.321Z,98394.94
2023-03-14T11:15:21.167Z,98397.63
2023-03-14T11:17:48.079Z,98394.22
2023-03-14T11:20:15.057Z,98399.84
2023-03-14T11:22:41.910Z,98398.72
2023-03-14T11:25:08.760Z,98395.38
2023-03-14T11:27:35.537Z,98396.59
2023-03-14T11:30:02.452Z,98393.38
2023-03-14T11:32:29.234Z,98393.75
2023-03-14T11:34:56.072Z,98390.47
2023-03-14T11:37:22.972Z,98381.63
2023-03-14T11:39:50.198Z,98385.44
2023-03-14T11:42:17.179Z,98385.38
2023-03-14T11:44:43.959Z,98385.84
2023-03-14T11:47:10.971Z,98376.09
2023-03-14T11:49:39.668Z,98378.34
2023-03-14T11:52:06.436Z,98389.47
2023-03-14T11:54:33.170Z,98387.03
2023-03-14T11:56:59.909Z,98375.97
2023-03-14T11:59:26.746Z,98383.63
2023-03-14T12:01:53.521Z,98379.69
2023-03-14T12:04:20.408Z,98374.13
2023-03-14T12:06:47.193Z,98380.91
2023-03-14T12:09:13.916Z,98383.91
2023-03-14T12:11:40.741Z,98374.50
2023-03-14T12:14:07.516Z,98369.47
2023-03-14T12:16:34.649Z,98370.59
2023-03-14T12:19:01.520Z,98363.03
2023-03-14T12:21:28.301Z,98365.63
2023-03-14T12:23:55.042Z,98367.22
2023-03-14T12:26:21.835Z,98362.94
2023-03-14T12:28:49.244Z,98361.22
2023-03-14T12:31:16.034Z,98358.41
2023-03-14T12:33:42.857Z,98358.03
2023-03-14T12:36:09.848Z,98348.69
2023-03-14T12:38:36.591Z,98355.97
2023-03-14T12:41:03.354Z,98349.09
2023-03-14T12:43:30.147Z,98350.34
2023-03-14T12:45:56.936Z,98343.44
2023-03-14T12:48:23.745Z,98344.75
2023-03-14T12:50:50.527Z,98346.84
2023-03-14T12:53:17.290Z,98341.00
2023-03-14T12:55:44.039Z,98332.06
2023-03-14T12:58:10.796Z,98329.75
2023-03-14T13:00:37.549Z,98333.28
2023-03-14T13:03:04.323Z,98336.44
2023-03-14T13:05:31.258Z,98334.19
2023-03-14T13:07:58.164Z,98327.81
2023-03-14T13:10:24.970Z,98328.25
2023-03-14T13:12:52.512Z,98335.09
2023-03-14T13:15:19.413Z,98331.13
2023-03-14T13:17:46.267Z,98330.56
2023-03-14T13:20:13.115Z,98330.53
2023-03-14T13:22:40.094Z,98332.09
2023-03-14T13:25:07.160Z,98324.97
2023-03-14T13:27:33.962Z,98328.66
2023-03-14T13:30:00.766Z,98330.13
2023-03-14T13:32:27.759Z,98324.50
2023-03-14T13:34:54.562Z,98324.25
2023-03-14T13:37:21.326Z,98324.97
2023-03-14T13:39:48.107Z,98322.34
2023-03-14T13:42:14.932Z,98326.41
2023-03-14T13:44:41.739Z,98338.69
2023-03-14T13:47:08.503Z,98355.44
2023-03-14T13:49:36.483Z,98399.31
2023-03-14T13:52:03.247Z,98487.47
2023-03-14T13:54:29.994Z,98490.50
2023-03-14T13:56:56.770Z,98520.09
2023-03-14T13:59:23.549Z,98542.06
2023-03-14T14:01:50.370Z,98558.22
2023-03-14T14:04:17.181Z,98560.91
2023-03-14T14:06:43.938Z,98552.13
2023-03-14T14:09:10.696Z,98572.63
2023-03-14T14:11:47.121Z,98578.66
2023-03-14T14:14:17.958Z,98581.59
2023-03-14T14:16:44.888Z,98585.66
2023-03-14T14:19:11.634Z,98592.16
2023-03-14T14:21:38.378Z,98602.22
2023-03-14T14:24:07.398Z,98606.72
2023-03-14T14:26:35.124Z,98614.06
2023-03-14T14:29:01.929Z,98638.00
2023-03-14T14:31:28.750Z,98657.09
2023-03-14T14:33:58.505Z,98680.91
2023-03-14T14:36:25.290Z,98692.91
2023-03-14T14:38:52.041Z,98725.94
2023-03-14T14:41:20.136Z,98735.13
2023-03-14T14:43:47.073Z,98752.31
2023-03-14T14:46:13.926Z,98766.50
2023-03-14T14:48:40.689Z,98787.13
2023-03-14T14:51:07.441Z,98796.97
2023-03-14T14:53:34.275Z,98812.84
2023-03-14T14:56:01.061Z,98835.41
2023-03-14T14:58:27.844Z,98840.97
2023-03-14T15:00:54.626Z,98854.56
2023-03-14T15:03:21.493Z,98864.03
2023-03-14T15:05:48.280Z,98896.22
2023-03-14T15:08:15.094Z,98896.84
2023-03-14T15:10:41.961Z,98907.91
2023-03-14T15:13:08.741Z,98912.44
2023-03-14T15:15:35.838Z,98915.03
2023-03-14T15:18:02.638Z,98937.63
2023-03-14T15:20:29.637Z,98944.91
2023-03-14T15:22:56.550Z,98961.25
2023-03-14T15:25:47.457Z,98979.19
2023-03-14T15:28:10.060Z,98987.53
2023-03-14T15:30:36.787Z,99008.72
2023-03-14T15:33:03.648Z,99026.22
2023-03-14T15:35:30.460Z,99013.88
2023-03-14T15:37:57.219Z,99026.28
2023-03-14T15:40:23.948Z,99041.50
2023-03-14T15:42:50.832Z,99062.88
2023-03-14T15:45:17.573Z,99064.78
2023-03-14T15:47:44.327Z,99072.03
2023-03-14T15:50:11.342Z,99088.59
2023-03-14T15:52:38.133Z,99096.38
2023-03-14T15:55:04.991Z,99102.47
2023-03-14T15:57:31.874Z,99114.63
2023-03-14T15:59:58.901Z,99118.25
2023-03-14T16:02:25.656Z,99126.81
2023-03-14T16:04:52.461Z,99143.03
2023-03-14T16:07:19.247Z,99146.94
2023-03-14T16:09:46.017Z,99164.84
2023-03-14T16:12:12.784Z,99179.22
2023-03-14T16:14:43.508Z,99190.78
2023-03-14T16:17:13.479Z,99195.13
2023-03-14T16:19:40.258Z,99188.00
2023-03-14T16:22:07.084Z,99191.69
2023-03-14T16:24:33.824Z,99207.66
2023-03-14T16:27:00.581Z,99218.66
2023-03-14T16:29:27.354Z,99232.16
2023-03-14T16:31:54.195Z,99233.41
2023-03-14T16:34:20.966Z,99223.66
2023-03-14T16:36:48.035Z,99241.53
2023-03-14T16:39:14.815Z,99254.94
2023-03-14T16:41:42.139Z,99274.63
2023-03-14T16:44:08.909Z,99276.31
2023-03-14T16:46:36.310Z,99285.28
2023-03-14T16:49:03.249Z,99297.09
2023-03-14T16:51:30.007Z,99316.88
2023-03-14T16:53:56.855Z,99336.97
2023-03-14T16:56:23.640Z,99343.34
2023-03-14T16:58:50.664Z,99349.25
2023-03-14T17:01:18.461Z,99361.22
2023-03-14T17:03:45.465Z,99363.97
2023-03-14T17:06:12.366Z,99381.69
2023-03-14T17:08:39.139Z,99382.69
2023-03-14T17:11:06.004Z,99389.94
2023-03-14T17:13:32.745Z,99394.31
2023-03-14T17:15:59.605Z,99402.34
2023-03-14T17:18:26.390Z,99404.50
2023-03-14T17:20:53.214Z,99413.13
2023-03-14T17:23:20.017Z,99421.25
2023-03-14T17:25:46.772Z,99425.72
2023-03-14T17:28:13.514Z,99446.25
2023-03-14T17:30:40.351Z,99456.13
2023-03-14T17:33:07.145Z,99468.94
2023-03-14T17:35:33.924Z,99474.44
2023-03-14T17:38:00.705Z,99482.69
2023-03-14T17:40:27.551Z,99486.69
2023-03-14T17:42:54.299Z,99504.56
2023-03-14T17:45:21.123Z,99501.63
2023-03-14T17:47:47.870Z,99515.38
2023-03-14T17:50:14.653Z,99520.28
2023-03-14T17:52:41.436Z,99535.25
2023-03-14T17:55:08.206Z,99534.41
2023-03-14T17:57:35.056Z,99544.19
2023-03-14T18:00:01.839Z,99548.59
2023-03-14T18:02:29.119Z,99564.03
2023-03-14T18:04:55.934Z,99571.78
2023-03-14T18:07:22.705Z,99583.66
2023-03-14T18:09:49.433Z,99585.84
2023-03-14T18:12:16.220Z,99600.84
2023-03-14T18:14:45.783Z,99599.84
2023-03-14T18:17:13.253Z,99608.53
2023-03-14T18:19:40.100Z,99613.00
2023-03-14T18:22:06.941Z,99620.66
2023-03-14T18:24:33.697Z,99628.06
2023-03-14T18:27:00.578Z,99642.41
2023-03-14T18:29:27.360Z,99641.13
2023-03-14T18:31:55.524Z,99646.44
2023-03-14T18:34:22.384Z,99658.28
2023-03-14T18:36:49.378Z,99666.63
2023-03-14T18:39:16.144Z,99667.66
2023-03-14T18:41:42.982Z,99674.81
2023-03-14T18:44:09.776Z,99684.31
2023-03-14T18:46:36.563Z,99686.13
2023-03-14T18:49:04.013Z,99693.78
2023-03-14T18:51:30.941Z,99711.09
2023-03-14T18:54:09.442Z,99718.09
2023-03-14T18:56:37.454Z,99718.41
2023-03-14T18:59:04.216Z,99727.50
2023-03-14T19:01:31.451Z,99728.41
2023-03-14T19:03:58.329Z,99737.22
2023-03-14T19:06:25.196Z,99747.41
2023-03-14T19:08:52.058Z,99750.75
2023-03-14T19:11:18.863Z,99752.25
2023-03-14T19:13:45.611Z,99760.22
2023-03-14T19:16:12.872Z,99762.69
2023-03-14T19:18:39.915Z,99761.84
2023-03-14T19:21:06.640Z,99777.81
2023-03-14T19:23:33.386Z,99780.09
2023-03-14T19:26:02.650Z,99792.50
2023-03-14T19:28:29.401Z,99794.84
2023-03-14T19:30:56.197Z,99797.44
2023-03-14T19:33:22.989Z,99802.16
2023-03-14T19:35:49.858Z,99805.59
2023-03-14T19:38:16.785Z,99811.38
2023-03-14T19:40:44.935Z,99810.53
2023-03-14T19:43:11.691Z,99814.34
2023-03-14T19:45:38.477Z,99820.06
2023-03-14T19:48:05.263Z,99826.03
2023-03-14T19:50:32.040Z,99827.56
2023-03-14T19:52:58.796Z,99847.91
2023-03-14T19:55:25.624Z,99839.31
2023-03-14T19:57:52.417Z,99845.06
2023-03-14T20:00:19.253Z,99853.00
2023-03-14T20:02:46.126Z,99858.25
2023-03-14T20:05:13.286Z,99850.66
2023-03-14T20:07:40.088Z,99864.41
2023-03-14T20:10:07.387Z,99862.06
2023-03-14T20:12:35.033Z,99869.53
2023-03-14T20:15:01.809Z,99860.91
2023-03-14T20:17:29.855Z,99876.06
2023-03-14T20:19:58.103Z,99878.88
2023-03-14T20:22:24.858Z,99884.31
2023-03-14T20:24:52.318Z,99892.59
2023-03-14T20:27:19.105Z,99893.59
2023-03-14T20:29:45.870Z,99898.28
2023-03-14T20:32:12.658Z,99904.63
2023-03-14T20:34:40.014Z,99915.63
2023-03-14T20:37:08.425Z,99913.91
2023-03-14T20:39:35.972Z,99919.28
2023-03-14T20:42:03.286Z,99928.56
2023-03-14T20:44:30.452Z,99922.53
2023-03-14T20:47:00.395Z,99924.31
2023-03-14T20:49:27.146Z,99930.88
2023-03-14T20:51:53.977Z,99945.38
2023-03-14T20:54:20.992Z,99951.78
2023-03-14T20:56:47.952Z,99957.59
2023-03-14T20:59:14.777Z,99964.00
2023-03-14T21:01:41.620Z,99976.75
2023-03-14T21:04:08.404Z,99982.31
2023-03-14T21:06:35.195Z,99978.88
2023-03-14T21:09:05.553Z,99990.34
2023-03-14T21:11:36.111Z,99997.63
2023-03-14T21:14:02.875Z,99998.59
2023-03-14T21:16:29.647Z,100003.50
2023-03-14T21:18:56.437Z,100007.75
2023-03-14T21:21:23.174Z,100011.53
2023-03-14T21:23:54.086Z,100015.84
2023-03-14T21:26:21.354Z,100018.44
2023-03-14T21:28:48.079Z,100014.78
2023-03-14T21:31:15.047Z,100027.47
2023-03-14T21:33:41.873Z,100032.97
2023-03-14T21:36:08.694Z,100042.03
2023-03-14T21:38:35.449Z,100048.34
2023-03-14T21:41:03.109Z,100047.59
2023-03-14T21:43:29.917Z,100058.44
2023-03-14T21:45:56.770Z,100053.44
2023-03-14T21:48:23.513Z,100060.16
2023-03-14T21:50:50.255Z,100055.41
2023-03-14T21:53:17.023Z,100055.16
2023-03-14T21:55:43.774Z,100061.75
2023-03-14T21:58:14.265Z,100060.16
2023-03-14T22:00:41.095Z,100063.75
2023-03-14T22:03:13.142Z,100068.19
2023-03-14T22:05:40.583Z,100074.16
2023-03-14T22:08:07.539Z,100062.19
2023-03-14T22:10:34.280Z,100077.00
2023-03-14T22:13:01.079Z,100080.34
2023-03-14T22:15:27.901Z,100078.53
2023-03-14T22:17:54.682Z,100073.75
2023-03-14T22:20:21.437Z,100082.78
2023-03-14T22:22:48.218Z,100083.63
2023-03-14T22:25:14.961Z,100092.22
2023-03-14T22:27:41.752Z,100094.34
2023-03-14T22:30:08.545Z,100099.50
2023-03-14T22:32:35.307Z,100104.97
2023-03-14T22:35:02.110Z,100100.28
2023-03-14T22:37:28.862Z,100108.19
2023-03-14T22:39:55.627Z,100112.94
2023-03-14T22:42:22.415Z,100124.22
2023-03-14T22:44:49.253Z,100124.78
2023-03-14T22:47:16.020Z,100126.31
2023-03-14T22:49:42.844Z,100121.16
2023-03-14T22:52:09.603Z,100122.88
2023-03-14T22:54:36.349Z,100126.00
2023-03-14T22:57:03.122Z,100134.50
2023-03-14T22:59:30.005Z,100141.16
2023-03-14T23:01:58.932Z,100146.53
2023-03-14T23:04:25.671Z,100148.69
2023-03-14T23:06:52.465Z,100147.25
2023-03-14T23:09:19.295Z,100152.97
2023-03-14T23:11:46.059Z,100165.53
2023-03-14T23:14:13.631Z,100155.78
2023-03-14T23:16:41.131Z,100164.53
2023-03-14T23:19:09.606Z,100171.22
2023-03-14T23:21:36.472Z,100174.25
2023-03-14T23:24:05.660Z,100171.53
2023-03-14T23:26:35.225Z,100178.13
2023-03-14T23:29:01.992Z,100176.06
2023-03-14T23:31:28.764Z,100180.69
2023-03-14T23:33:55.509Z,100183.56
2023-03-14T23:36:22.439Z,100181.66
2023-03-14T23:38:49.286Z,100186.41
2023-03-14T23:41:16.099Z,100193.72
2023-03-14T23:43:42.880Z,100193.97
2023-03-14T23:46:09.671Z,100197.91
2023-03-14T23:48:36.585Z,100209.53
2023-03-14T23:51:03.417Z,100201.72
2023-03-14T23:53:30.246Z,100203.06
2023-03-14T23:55:56.972Z,100205.22
2023-03-14T23:58:23.940Z,100205.34
